sensor_id;sensor_type;location;lat;lon;timestamp;P1;durP1;ratioP1;P2;durP2;ratioP2
27231;SDS011;61835;50.196;6.454;2022-07-06T00:01:06;0.75;;;0.75;;
27231;SDS011;61835;50.196;6.454;2022-07-06T00:03:31;0.73;;;0.60;;
27231;SDS011;61835;50.196;6.454;2022-07-06T00:05:57;0.82;;;0.57;;
27231;SDS011;61835;50.196;6.454;2022-07-06T00:08:22;0.85;;;0.50;;
27231;SDS011;61835;50.196;6.454;2022-07-06T00:10:48;1.25;;;0.68;;
27231;SDS011;61835;50.196;6.454;2022-07-06T00:13:13;1.27;;;0.52;;
27231;SDS011;61835;50.196;6.454;2022-07-06T00:15:40;0.32;;;0.32;;
27231;SDS011;61835;50.196;6.454;2022-07-06T00:18:05;0.70;;;0.60;;
27231;SDS011;61835;50.196;6.454;2022-07-06T00:20:31;1.35;;;0.70;;
27231;SDS011;61835;50.196;6.454;2022-07-06T00:22:56;1.20;;;0.65;;
27231;SDS011;61835;50.196;6.454;2022-07-06T00:25:22;0.65;;;0.65;;
27231;SDS011;61835;50.196;6.454;2022-07-06T00:27:47;0.55;;;0.43;;
27231;SDS011;61835;50.196;6.454;2022-07-06T00:30:13;0.40;;;0.40;;
27231;SDS011;61835;50.196;6.454;2022-07-06T00:32:38;0.82;;;0.82;;
27231;SDS011;61835;50.196;6.454;2022-07-06T00:35:04;2.08;;;0.47;;
27231;SDS011;61835;50.196;6.454;2022-07-06T00:37:30;1.27;;;0.90;;
27231;SDS011;61835;50.196;6.454;2022-07-06T00:39:55;3.50;;;0.88;;
27231;SDS011;61835;50.196;6.454;2022-07-06T00:42:21;2.88;;;1.30;;
27231;SDS011;61835;50.196;6.454;2022-07-06T00:44:46;0.40;;;0.40;;
27231;SDS011;61835;50.196;6.454;2022-07-06T00:47:11;0.50;;;0.50;;
27231;SDS011;61835;50.196;6.454;2022-07-06T00:49:37;0.75;;;0.68;;
27231;SDS011;61835;50.196;6.454;2022-07-06T00:52:21;0.60;;;0.60;;
27231;SDS011;61835;50.196;6.454;2022-07-06T00:54:47;0.77;;;0.52;;
27231;SDS011;61835;50.196;6.454;2022-07-06T00:57:12;0.90;;;0.40;;
27231;SDS011;61835;50.196;6.454;2022-07-06T00:59:38;5.70;;;0.80;;
27231;SDS011;61835;50.196;6.454;2022-07-06T01:02:03;1.00;;;0.90;;
27231;SDS011;61835;50.196;6.454;2022-07-06T01:04:29;0.68;;;0.68;;
27231;SDS011;61835;50.196;6.454;2022-07-06T01:06:55;1.35;;;0.70;;
27231;SDS011;61835;50.196;6.454;2022-07-06T01:09:22;3.60;;;0.75;;
27231;SDS011;61835;50.196;6.454;2022-07-06T01:11:48;0.63;;;0.50;;
27231;SDS011;61835;50.196;6.454;2022-07-06T01:14:14;0.30;;;0.30;;
27231;SDS011;61835;50.196;6.454;2022-07-06T01:16:40;0.93;;;0.50;;
27231;SDS011;61835;50.196;6.454;2022-07-06T01:19:06;0.68;;;0.50;;
27231;SDS011;61835;50.196;6.454;2022-07-06T01:21:31;1.13;;;0.57;;
27231;SDS011;61835;50.196;6.454;2022-07-06T01:23:57;1.90;;;0.90;;
27231;SDS011;61835;50.196;6.454;2022-07-06T01:26:22;0.95;;;0.85;;
27231;SDS011;61835;50.196;6.454;2022-07-06T01:28:48;1.08;;;0.90;;
27231;SDS011;61835;50.196;6.454;2022-07-06T01:31:16;0.50;;;0.47;;
27231;SDS011;61835;50.196;6.454;2022-07-06T01:33:44;0.47;;;0.47;;
27231;SDS011;61835;50.196;6.454;2022-07-06T01:36:09;0.60;;;0.60;;
27231;SDS011;61835;50.196;6.454;2022-07-06T01:38:48;3.60;;;0.75;;
27231;SDS011;61835;50.196;6.454;2022-07-06T01:41:16;0.70;;;0.70;;
27231;SDS011;61835;50.196;6.454;2022-07-06T01:43:42;0.40;;;0.40;;
27231;SDS011;61835;50.196;6.454;2022-07-06T01:46:09;0.52;;;0.52;;
27231;SDS011;61835;50.196;6.454;2022-07-06T01:48:35;0.70;;;0.70;;
27231;SDS011;61835;50.196;6.454;2022-07-06T01:51:00;0.68;;;0.68;;
27231;SDS011;61835;50.196;6.454;2022-07-06T01:53:26;0.63;;;0.63;;
27231;SDS011;61835;50.196;6.454;2022-07-06T01:55:53;0.40;;;0.40;;
27231;SDS011;61835;50.196;6.454;2022-07-06T01:58:18;1.13;;;1.02;;
27231;SDS011;61835;50.196;6.454;2022-07-06T02:00:44;0.43;;;0.43;;
27231;SDS011;61835;50.196;6.454;2022-07-06T02:03:09;0.70;;;0.70;;
27231;SDS011;61835;50.196;6.454;2022-07-06T02:05:36;2.10;;;0.70;;
27231;SDS011;61835;50.196;6.454;2022-07-06T02:08:03;0.95;;;0.90;;
27231;SDS011;61835;50.196;6.454;2022-07-06T02:10:29;0.40;;;0.40;;
27231;SDS011;61835;50.196;6.454;2022-07-06T02:12:54;0.70;;;0.60;;
27231;SDS011;61835;50.196;6.454;2022-07-06T02:15:20;0.30;;;0.30;;
27231;SDS011;61835;50.196;6.454;2022-07-06T02:17:45;2.05;;;0.82;;
27231;SDS011;61835;50.196;6.454;2022-07-06T02:20:11;1.08;;;0.75;;
27231;SDS011;61835;50.196;6.454;2022-07-06T02:22:36;0.60;;;0.60;;
27231;SDS011;61835;50.196;6.454;2022-07-06T02:25:02;0.45;;;0.45;;
27231;SDS011;61835;50.196;6.454;2022-07-06T02:27:29;2.75;;;1.05;;
27231;SDS011;61835;50.196;6.454;2022-07-06T02:29:56;0.50;;;0.50;;
27231;SDS011;61835;50.196;6.454;2022-07-06T02:32:22;1.05;;;0.60;;
27231;SDS011;61835;50.196;6.454;2022-07-06T02:34:49;4.95;;;1.73;;
27231;SDS011;61835;50.196;6.454;2022-07-06T02:37:14;4.28;;;0.65;;
27231;SDS011;61835;50.196;6.454;2022-07-06T02:39:40;1.02;;;0.80;;
27231;SDS011;61835;50.196;6.454;2022-07-06T02:42:05;0.70;;;0.70;;
27231;SDS011;61835;50.196;6.454;2022-07-06T02:44:31;1.15;;;1.05;;
27231;SDS011;61835;50.196;6.454;2022-07-06T02:46:56;0.55;;;0.45;;
27231;SDS011;61835;50.196;6.454;2022-07-06T02:49:22;0.85;;;0.60;;
27231;SDS011;61835;50.196;6.454;2022-07-06T02:51:48;2.53;;;1.02;;
27231;SDS011;61835;50.196;6.454;2022-07-06T02:54:14;3.22;;;1.48;;
27231;SDS011;61835;50.196;6.454;2022-07-06T02:56:41;3.50;;;1.25;;
27231;SDS011;61835;50.196;6.454;2022-07-06T02:59:07;1.23;;;0.98;;
27231;SDS011;61835;50.196;6.454;2022-07-06T03:01:33;0.63;;;0.63;;
27231;SDS011;61835;50.196;6.454;2022-07-06T03:03:59;1.10;;;0.88;;
27231;SDS011;61835;50.196;6.454;2022-07-06T03:06:24;0.75;;;0.75;;
27231;SDS011;61835;50.196;6.454;2022-07-06T03:08:50;8.68;;;1.10;;
27231;SDS011;61835;50.196;6.454;2022-07-06T03:11:16;2.88;;;1.63;;
27231;SDS011;61835;50.196;6.454;2022-07-06T03:13:41;0.80;;;0.80;;
27231;SDS011;61835;50.196;6.454;2022-07-06T03:16:07;0.82;;;0.70;;
27231;SDS011;61835;50.196;6.454;2022-07-06T03:18:33;1.38;;;1.20;;
27231;SDS011;61835;50.196;6.454;2022-07-06T03:20:59;0.50;;;0.50;;
27231;SDS011;61835;50.196;6.454;2022-07-06T03:23:24;1.02;;;0.98;;
27231;SDS011;61835;50.196;6.454;2022-07-06T03:25:50;1.10;;;1.00;;
27231;SDS011;61835;50.196;6.454;2022-07-06T03:28:15;1.15;;;0.80;;
27231;SDS011;61835;50.196;6.454;2022-07-06T03:30:41;0.93;;;0.73;;
27231;SDS011;61835;50.196;6.454;2022-07-06T03:33:06;0.80;;;0.80;;
27231;SDS011;61835;50.196;6.454;2022-07-06T03:35:32;0.70;;;0.70;;
27231;SDS011;61835;50.196;6.454;2022-07-06T03:38:00;0.90;;;0.90;;
27231;SDS011;61835;50.196;6.454;2022-07-06T03:40:29;1.63;;;1.52;;
27231;SDS011;61835;50.196;6.454;2022-07-06T03:42:54;1.15;;;1.08;;
27231;SDS011;61835;50.196;6.454;2022-07-06T03:45:20;0.77;;;0.77;;
27231;SDS011;61835;50.196;6.454;2022-07-06T03:47:46;0.98;;;0.95;;
27231;SDS011;61835;50.196;6.454;2022-07-06T03:50:12;1.70;;;1.00;;
27231;SDS011;61835;50.196;6.454;2022-07-06T03:52:38;1.70;;;1.25;;
27231;SDS011;61835;50.196;6.454;2022-07-06T03:55:07;0.93;;;0.90;;
27231;SDS011;61835;50.196;6.454;2022-07-06T03:57:34;0.95;;;0.90;;
27231;SDS011;61835;50.196;6.454;2022-07-06T04:00:02;1.08;;;0.70;;
27231;SDS011;61835;50.196;6.454;2022-07-06T04:02:39;0.88;;;0.57;;
27231;SDS011;61835;50.196;6.454;2022-07-06T04:05:06;0.70;;;0.70;;
27231;SDS011;61835;50.196;6.454;2022-07-06T04:07:32;0.98;;;0.98;;
27231;SDS011;61835;50.196;6.454;2022-07-06T04:09:57;1.98;;;0.90;;
27231;SDS011;61835;50.196;6.454;2022-07-06T04:12:23;1.30;;;1.20;;
27231;SDS011;61835;50.196;6.454;2022-07-06T04:14:49;1.70;;;1.27;;
27231;SDS011;61835;50.196;6.454;2022-07-06T04:17:14;2.72;;;2.25;;
27231;SDS011;61835;50.196;6.454;2022-07-06T04:20:00;0.90;;;0.90;;
27231;SDS011;61835;50.196;6.454;2022-07-06T04:22:26;1.83;;;1.60;;
27231;SDS011;61835;50.196;6.454;2022-07-06T04:24:51;2.70;;;1.35;;
27231;SDS011;61835;50.196;6.454;2022-07-06T04:27:17;1.80;;;1.40;;
27231;SDS011;61835;50.196;6.454;2022-07-06T04:29:42;1.38;;;0.90;;
27231;SDS011;61835;50.196;6.454;2022-07-06T04:32:09;2.22;;;1.40;;
27231;SDS011;61835;50.196;6.454;2022-07-06T04:34:35;0.60;;;0.60;;
27231;SDS011;61835;50.196;6.454;2022-07-06T04:37:01;1.65;;;1.55;;
27231;SDS011;61835;50.196;6.454;2022-07-06T04:39:26;1.33;;;1.23;;
27231;SDS011;61835;50.196;6.454;2022-07-06T04:41:52;1.00;;;0.88;;
27231;SDS011;61835;50.196;6.454;2022-07-06T04:44:18;0.90;;;0.90;;
27231;SDS011;61835;50.196;6.454;2022-07-06T04:46:44;0.70;;;0.70;;
27231;SDS011;61835;50.196;6.454;2022-07-06T04:49:10;2.53;;;1.20;;
27231;SDS011;61835;50.196;6.454;2022-07-06T04:51:36;0.70;;;0.70;;
27231;SDS011;61835;50.196;6.454;2022-07-06T04:54:03;1.33;;;1.15;;
27231;SDS011;61835;50.196;6.454;2022-07-06T04:56:31;1.15;;;0.80;;
27231;SDS011;61835;50.196;6.454;2022-07-06T04:58:57;1.33;;;0.80;;
27231;SDS011;61835;50.196;6.454;2022-07-06T05:01:24;0.80;;;0.80;;
27231;SDS011;61835;50.196;6.454;2022-07-06T05:03:49;0.90;;;0.90;;
27231;SDS011;61835;50.196;6.454;2022-07-06T05:06:17;1.15;;;0.90;;
27231;SDS011;61835;50.196;6.454;2022-07-06T05:08:45;1.27;;;1.17;;
27231;SDS011;61835;50.196;6.454;2022-07-06T05:11:10;1.30;;;0.90;;
27231;SDS011;61835;50.196;6.454;2022-07-06T05:13:36;1.20;;;0.98;;
27231;SDS011;61835;50.196;6.454;2022-07-06T05:16:03;2.25;;;1.13;;
27231;SDS011;61835;50.196;6.454;2022-07-06T05:18:28;1.58;;;1.48;;
27231;SDS011;61835;50.196;6.454;2022-07-06T05:20:55;2.30;;;1.40;;
27231;SDS011;61835;50.196;6.454;2022-07-06T05:23:21;1.52;;;1.42;;
27231;SDS011;61835;50.196;6.454;2022-07-06T05:25:47;2.58;;;1.83;;
27231;SDS011;61835;50.196;6.454;2022-07-06T05:28:12;2.15;;;1.80;;
27231;SDS011;61835;50.196;6.454;2022-07-06T05:30:38;5.80;;;1.65;;
27231;SDS011;61835;50.196;6.454;2022-07-06T05:33:03;5.63;;;2.22;;
27231;SDS011;61835;50.196;6.454;2022-07-06T05:35:30;3.22;;;1.77;;
27231;SDS011;61835;50.196;6.454;2022-07-06T05:37:56;3.78;;;2.60;;
27231;SDS011;61835;50.196;6.454;2022-07-06T05:40:22;3.28;;;1.95;;
27231;SDS011;61835;50.196;6.454;2022-07-06T05:42:47;3.05;;;1.50;;
27231;SDS011;61835;50.196;6.454;2022-07-06T05:45:13;9.27;;;2.60;;
27231;SDS011;61835;50.196;6.454;2022-07-06T05:47:39;2.63;;;2.00;;
27231;SDS011;61835;50.196;6.454;2022-07-06T05:50:24;4.82;;;2.25;;
27231;SDS011;61835;50.196;6.454;2022-07-06T05:52:57;1.73;;;1.30;;
27231;SDS011;61835;50.196;6.454;2022-07-06T05:55:25;2.90;;;2.20;;
27231;SDS011;61835;50.196;6.454;2022-07-06T05:57:52;2.28;;;1.42;;
27231;SDS011;61835;50.196;6.454;2022-07-06T06:00:20;2.13;;;1.38;;
27231;SDS011;61835;50.196;6.454;2022-07-06T06:02:51;2.53;;;1.67;;
27231;SDS011;61835;50.196;6.454;2022-07-06T06:05:18;1.27;;;1.15;;
27231;SDS011;61835;50.196;6.454;2022-07-06T06:07:46;2.28;;;2.08;;
27231;SDS011;61835;50.196;6.454;2022-07-06T06:10:14;2.38;;;1.63;;
27231;SDS011;61835;50.196;6.454;2022-07-06T06:12:41;1.35;;;0.98;;
27231;SDS011;61835;50.196;6.454;2022-07-06T06:15:07;2.70;;;1.17;;
27231;SDS011;61835;50.196;6.454;2022-07-06T06:17:35;2.55;;;0.98;;
27231;SDS011;61835;50.196;6.454;2022-07-06T06:20:01;10.93;;;1.38;;
27231;SDS011;61835;50.196;6.454;2022-07-06T06:22:27;0.85;;;0.77;;
27231;SDS011;61835;50.196;6.454;2022-07-06T06:24:52;3.65;;;1.17;;
27231;SDS011;61835;50.196;6.454;2022-07-06T06:27:18;2.22;;;0.93;;
27231;SDS011;61835;50.196;6.454;2022-07-06T06:29:44;3.97;;;0.90;;
27231;SDS011;61835;50.196;6.454;2022-07-06T06:32:10;3.20;;;1.02;;
27231;SDS011;61835;50.196;6.454;2022-07-06T06:34:37;1.90;;;1.05;;
27231;SDS011;61835;50.196;6.454;2022-07-06T06:37:04;0.70;;;0.70;;
27231;SDS011;61835;50.196;6.454;2022-07-06T06:39:29;0.50;;;0.50;;
27231;SDS011;61835;50.196;6.454;2022-07-06T06:41:55;3.97;;;1.23;;
27231;SDS011;61835;50.196;6.454;2022-07-06T06:44:20;0.70;;;0.50;;
27231;SDS011;61835;50.196;6.454;2022-07-06T06:46:48;1.15;;;0.93;;
27231;SDS011;61835;50.196;6.454;2022-07-06T06:49:15;0.65;;;0.57;;
27231;SDS011;61835;50.196;6.454;2022-07-06T06:51:40;1.08;;;0.82;;
27231;SDS011;61835;50.196;6.454;2022-07-06T06:54:06;2.70;;;0.50;;
27231;SDS011;61835;50.196;6.454;2022-07-06T06:56:31;1.02;;;0.98;;
27231;SDS011;61835;50.196;6.454;2022-07-06T06:58:57;0.70;;;0.70;;
27231;SDS011;61835;50.196;6.454;2022-07-06T07:01:22;7.57;;;1.20;;
27231;SDS011;61835;50.196;6.454;2022-07-06T07:03:49;1.85;;;1.13;;
27231;SDS011;61835;50.196;6.454;2022-07-06T07:06:16;0.55;;;0.55;;
27231;SDS011;61835;50.196;6.454;2022-07-06T07:08:41;2.25;;;1.40;;
27231;SDS011;61835;50.196;6.454;2022-07-06T07:11:07;0.73;;;0.60;;
27231;SDS011;61835;50.196;6.454;2022-07-06T07:13:32;0.52;;;0.52;;
27231;SDS011;61835;50.196;6.454;2022-07-06T07:15:57;0.22;;;0.22;;
27231;SDS011;61835;50.196;6.454;2022-07-06T07:18:23;0.30;;;0.30;;
27231;SDS011;61835;50.196;6.454;2022-07-06T07:20:48;0.45;;;0.45;;
27231;SDS011;61835;50.196;6.454;2022-07-06T07:23:14;0.30;;;0.30;;
27231;SDS011;61835;50.196;6.454;2022-07-06T07:25:39;0.85;;;0.80;;
27231;SDS011;61835;50.196;6.454;2022-07-06T07:28:05;0.50;;;0.50;;
27231;SDS011;61835;50.196;6.454;2022-07-06T07:30:30;0.65;;;0.60;;
27231;SDS011;61835;50.196;6.454;2022-07-06T07:32:56;0.40;;;0.30;;
27231;SDS011;61835;50.196;6.454;2022-07-06T07:35:22;0.35;;;0.35;;
27231;SDS011;61835;50.196;6.454;2022-07-06T07:37:48;0.30;;;0.30;;
27231;SDS011;61835;50.196;6.454;2022-07-06T07:40:14;3.72;;;0.65;;
27231;SDS011;61835;50.196;6.454;2022-07-06T07:42:39;0.40;;;0.40;;
27231;SDS011;61835;50.196;6.454;2022-07-06T07:45:06;0.30;;;0.30;;
27231;SDS011;61835;50.196;6.454;2022-07-06T07:47:32;0.50;;;0.30;;
27231;SDS011;61835;50.196;6.454;2022-07-06T07:49:57;0.40;;;0.40;;
27231;SDS011;61835;50.196;6.454;2022-07-06T07:52:23;0.30;;;0.30;;
27231;SDS011;61835;50.196;6.454;2022-07-06T07:54:48;0.30;;;0.20;;
27231;SDS011;61835;50.196;6.454;2022-07-06T07:57:14;0.32;;;0.30;;
27231;SDS011;61835;50.196;6.454;2022-07-06T07:59:39;0.20;;;0.20;;
27231;SDS011;61835;50.196;6.454;2022-07-06T08:02:05;0.63;;;0.40;;
27231;SDS011;61835;50.196;6.454;2022-07-06T08:04:31;1.10;;;0.70;;
27231;SDS011;61835;50.196;6.454;2022-07-06T08:06:56;0.30;;;0.30;;
27231;SDS011;61835;50.196;6.454;2022-07-06T08:09:22;9.48;;;0.85;;
27231;SDS011;61835;50.196;6.454;2022-07-06T08:11:47;0.20;;;0.20;;
27231;SDS011;61835;50.196;6.454;2022-07-06T08:14:13;0.20;;;0.20;;
27231;SDS011;61835;50.196;6.454;2022-07-06T08:16:39;0.40;;;0.40;;
27231;SDS011;61835;50.196;6.454;2022-07-06T08:19:05;0.30;;;0.30;;
27231;SDS011;61835;50.196;6.454;2022-07-06T08:21:31;0.20;;;0.20;;
27231;SDS011;61835;50.196;6.454;2022-07-06T08:23:56;0.43;;;0.40;;
27231;SDS011;61835;50.196;6.454;2022-07-06T08:26:23;0.32;;;0.32;;
27231;SDS011;61835;50.196;6.454;2022-07-06T08:28:48;0.28;;;0.28;;
27231;SDS011;61835;50.196;6.454;2022-07-06T08:31:14;0.20;;;0.20;;
27231;SDS011;61835;50.196;6.454;2022-07-06T08:33:39;0.20;;;0.20;;
27231;SDS011;61835;50.196;6.454;2022-07-06T08:36:05;1.05;;;0.40;;
27231;SDS011;61835;50.196;6.454;2022-07-06T08:38:30;0.20;;;0.20;;
27231;SDS011;61835;50.196;6.454;2022-07-06T08:40:56;0.17;;;0.17;;
27231;SDS011;61835;50.196;6.454;2022-07-06T08:43:22;0.38;;;0.32;;
27231;SDS011;61835;50.196;6.454;2022-07-06T08:45:49;0.30;;;0.30;;
27231;SDS011;61835;50.196;6.454;2022-07-06T08:48:18;0.20;;;0.20;;
27231;SDS011;61835;50.196;6.454;2022-07-06T08:50:43;0.30;;;0.20;;
27231;SDS011;61835;50.196;6.454;2022-07-06T08:53:09;0.30;;;0.20;;
27231;SDS011;61835;50.196;6.454;2022-07-06T08:55:35;0.17;;;0.17;;
27231;SDS011;61835;50.196;6.454;2022-07-06T08:58:01;0.30;;;0.30;;
27231;SDS011;61835;50.196;6.454;2022-07-06T09:00:27;0.40;;;0.20;;
27231;SDS011;61835;50.196;6.454;2022-07-06T09:02:52;0.20;;;0.20;;
27231;SDS011;61835;50.196;6.454;2022-07-06T09:05:22;0.20;;;0.20;;
27231;SDS011;61835;50.196;6.454;2022-07-06T09:07:49;0.63;;;0.52;;
27231;SDS011;61835;50.196;6.454;2022-07-06T09:10:17;1.10;;;0.70;;
27231;SDS011;61835;50.196;6.454;2022-07-06T09:12:43;0.20;;;0.20;;
27231;SDS011;61835;50.196;6.454;2022-07-06T09:15:09;0.47;;;0.43;;
27231;SDS011;61835;50.196;6.454;2022-07-06T09:17:37;0.45;;;0.40;;
27231;SDS011;61835;50.196;6.454;2022-07-06T09:20:05;0.40;;;0.30;;
27231;SDS011;61835;50.196;6.454;2022-07-06T09:22:33;3.90;;;0.30;;
27231;SDS011;61835;50.196;6.454;2022-07-06T09:27:39;0.20;;;0.20;;
27231;SDS011;61835;50.196;6.454;2022-07-06T09:30:08;0.30;;;0.30;;
27231;SDS011;61835;50.196;6.454;2022-07-06T09:32:39;1.58;;;0.57;;
27231;SDS011;61835;50.196;6.454;2022-07-06T09:35:19;0.93;;;0.57;;
27231;SDS011;61835;50.196;6.454;2022-07-06T09:37:45;5.95;;;0.82;;
27231;SDS011;61835;50.196;6.454;2022-07-06T09:40:16;0.10;;;0.10;;
27231;SDS011;61835;50.196;6.454;2022-07-06T09:42:43;0.20;;;0.20;;
27231;SDS011;61835;50.196;6.454;2022-07-06T09:45:08;10.93;;;0.40;;
27231;SDS011;61835;50.196;6.454;2022-07-06T09:47:34;0.20;;;0.20;;
27231;SDS011;61835;50.196;6.454;2022-07-06T09:50:01;0.20;;;0.20;;
27231;SDS011;61835;50.196;6.454;2022-07-06T09:52:26;0.32;;;0.32;;
27231;SDS011;61835;50.196;6.454;2022-07-06T09:54:52;0.20;;;0.20;;
27231;SDS011;61835;50.196;6.454;2022-07-06T09:57:17;0.50;;;0.30;;
27231;SDS011;61835;50.196;6.454;2022-07-06T09:59:49;1.83;;;0.35;;
27231;SDS011;61835;50.196;6.454;2022-07-06T10:02:16;0.40;;;0.30;;
27231;SDS011;61835;50.196;6.454;2022-07-06T10:04:41;1.35;;;0.60;;
27231;SDS011;61835;50.196;6.454;2022-07-06T10:07:10;2.88;;;0.68;;
27231;SDS011;61835;50.196;6.454;2022-07-06T10:09:36;0.30;;;0.20;;
27231;SDS011;61835;50.196;6.454;2022-07-06T10:12:03;0.85;;;0.57;;
27231;SDS011;61835;50.196;6.454;2022-07-06T10:14:31;0.10;;;0.10;;
27231;SDS011;61835;50.196;6.454;2022-07-06T10:16:58;2.20;;;0.20;;
27231;SDS011;61835;50.196;6.454;2022-07-06T10:19:29;0.15;;;0.15;;
27231;SDS011;61835;50.196;6.454;2022-07-06T10:22:00;0.68;;;0.47;;
27231;SDS011;61835;50.196;6.454;2022-07-06T10:24:28;3.50;;;0.30;;
27231;SDS011;61835;50.196;6.454;2022-07-06T10:26:55;4.57;;;0.30;;
27231;SDS011;61835;50.196;6.454;2022-07-06T10:29:21;0.43;;;0.20;;
27231;SDS011;61835;50.196;6.454;2022-07-06T10:31:47;0.40;;;0.20;;
27231;SDS011;61835;50.196;6.454;2022-07-06T10:34:14;0.90;;;0.43;;
27231;SDS011;61835;50.196;6.454;2022-07-06T10:36:44;0.10;;;0.10;;
27231;SDS011;61835;50.196;6.454;2022-07-06T10:39:13;2.25;;;0.38;;
27231;SDS011;61835;50.196;6.454;2022-07-06T10:41:57;0.15;;;0.10;;
27231;SDS011;61835;50.196;6.454;2022-07-06T10:44:24;3.22;;;0.30;;
27231;SDS011;61835;50.196;6.454;2022-07-06T10:46:51;0.47;;;0.38;;
27231;SDS011;61835;50.196;6.454;2022-07-06T10:49:22;0.10;;;0.10;;
27231;SDS011;61835;50.196;6.454;2022-07-06T10:51:48;0.20;;;0.20;;
27231;SDS011;61835;50.196;6.454;2022-07-06T10:54:14;0.20;;;0.20;;
27231;SDS011;61835;50.196;6.454;2022-07-06T10:59:14;0.32;;;0.32;;
27231;SDS011;61835;50.196;6.454;2022-07-06T11:02:11;0.10;;;0.10;;
27231;SDS011;61835;50.196;6.454;2022-07-06T11:04:39;0.10;;;0.10;;
27231;SDS011;61835;50.196;6.454;2022-07-06T11:07:16;0.80;;;0.25;;
27231;SDS011;61835;50.196;6.454;2022-07-06T11:10:01;3.15;;;0.20;;
27231;SDS011;61835;50.196;6.454;2022-07-06T11:12:27;0.43;;;0.40;;
27231;SDS011;61835;50.196;6.454;2022-07-06T11:14:52;0.10;;;0.10;;
27231;SDS011;61835;50.196;6.454;2022-07-06T11:17:20;0.35;;;0.28;;
27231;SDS011;61835;50.196;6.454;2022-07-06T11:19:55;0.10;;;0.10;;
27231;SDS011;61835;50.196;6.454;2022-07-06T11:22:21;0.43;;;0.13;;
27231;SDS011;61835;50.196;6.454;2022-07-06T11:24:49;1.20;;;0.20;;
27231;SDS011;61835;50.196;6.454;2022-07-06T11:27:16;0.63;;;0.20;;
27231;SDS011;61835;50.196;6.454;2022-07-06T11:29:42;0.95;;;0.65;;
27231;SDS011;61835;50.196;6.454;2022-07-06T11:32:10;0.10;;;0.10;;
27231;SDS011;61835;50.196;6.454;2022-07-06T11:34:41;0.47;;;0.20;;
27231;SDS011;61835;50.196;6.454;2022-07-06T11:37:08;1.10;;;1.00;;
27231;SDS011;61835;50.196;6.454;2022-07-06T11:39:36;0.47;;;0.25;;
27231;SDS011;61835;50.196;6.454;2022-07-06T11:42:07;0.20;;;0.20;;
27231;SDS011;61835;50.196;6.454;2022-07-06T11:44:36;0.10;;;0.10;;
27231;SDS011;61835;50.196;6.454;2022-07-06T11:47:03;0.45;;;0.10;;
27231;SDS011;61835;50.196;6.454;2022-07-06T11:49:29;0.30;;;0.15;;
27231;SDS011;61835;50.196;6.454;2022-07-06T11:51:56;0.35;;;0.32;;
27231;SDS011;61835;50.196;6.454;2022-07-06T11:54:23;0.30;;;0.20;;
27231;SDS011;61835;50.196;6.454;2022-07-06T11:56:50;0.17;;;0.17;;
27231;SDS011;61835;50.196;6.454;2022-07-06T11:59:27;0.10;;;0.10;;
27231;SDS011;61835;50.196;6.454;2022-07-06T12:02:00;0.30;;;0.20;;
27231;SDS011;61835;50.196;6.454;2022-07-06T12:04:27;3.83;;;0.30;;
27231;SDS011;61835;50.196;6.454;2022-07-06T12:06:54;0.40;;;0.20;;
27231;SDS011;61835;50.196;6.454;2022-07-06T12:09:20;0.32;;;0.20;;
27231;SDS011;61835;50.196;6.454;2022-07-06T12:11:46;0.98;;;0.30;;
27231;SDS011;61835;50.196;6.454;2022-07-06T12:14:18;0.10;;;0.10;;
27231;SDS011;61835;50.196;6.454;2022-07-06T12:16:46;0.40;;;0.40;;
27231;SDS011;61835;50.196;6.454;2022-07-06T12:19:12;0.35;;;0.22;;
27231;SDS011;61835;50.196;6.454;2022-07-06T12:21:42;0.25;;;0.20;;
27231;SDS011;61835;50.196;6.454;2022-07-06T12:24:23;0.35;;;0.20;;
27231;SDS011;61835;50.196;6.454;2022-07-06T12:26:50;0.90;;;0.32;;
27231;SDS011;61835;50.196;6.454;2022-07-06T12:29:16;0.20;;;0.20;;
27231;SDS011;61835;50.196;6.454;2022-07-06T12:31:52;1.55;;;0.30;;
27231;SDS011;61835;50.196;6.454;2022-07-06T12:34:20;2.85;;;0.55;;
27231;SDS011;61835;50.196;6.454;2022-07-06T12:36:50;1.13;;;0.30;;
27231;SDS011;61835;50.196;6.454;2022-07-06T12:39:17;0.45;;;0.20;;
27231;SDS011;61835;50.196;6.454;2022-07-06T12:41:53;1.45;;;0.30;;
27231;SDS011;61835;50.196;6.454;2022-07-06T12:44:23;0.55;;;0.38;;
27231;SDS011;61835;50.196;6.454;2022-07-06T12:46:50;0.50;;;0.38;;
27231;SDS011;61835;50.196;6.454;2022-07-06T12:49:26;0.52;;;0.43;;
27231;SDS011;61835;50.196;6.454;2022-07-06T12:51:52;0.20;;;0.20;;
27231;SDS011;61835;50.196;6.454;2022-07-06T12:54:26;0.28;;;0.22;;
27231;SDS011;61835;50.196;6.454;2022-07-06T13:00:00;0.40;;;0.30;;
27231;SDS011;61835;50.196;6.454;2022-07-06T13:02:24;0.60;;;0.45;;
27231;SDS011;61835;50.196;6.454;2022-07-06T13:07:26;0.20;;;0.20;;
27231;SDS011;61835;50.196;6.454;2022-07-06T13:09:54;0.60;;;0.30;;
27231;SDS011;61835;50.196;6.454;2022-07-06T13:12:21;1.35;;;0.60;;
27231;SDS011;61835;50.196;6.454;2022-07-06T13:14:47;1.42;;;0.77;;
27231;SDS011;61835;50.196;6.454;2022-07-06T13:17:14;5.22;;;0.95;;
27231;SDS011;61835;50.196;6.454;2022-07-06T13:19:39;1.38;;;0.25;;
27231;SDS011;61835;50.196;6.454;2022-07-06T13:22:05;0.20;;;0.20;;
27231;SDS011;61835;50.196;6.454;2022-07-06T13:24:30;1.38;;;0.20;;
27231;SDS011;61835;50.196;6.454;2022-07-06T13:26:56;1.50;;;0.25;;
27231;SDS011;61835;50.196;6.454;2022-07-06T13:29:22;1.55;;;0.85;;
27231;SDS011;61835;50.196;6.454;2022-07-06T13:31:48;0.60;;;0.20;;
27231;SDS011;61835;50.196;6.454;2022-07-06T13:34:13;0.52;;;0.45;;
27231;SDS011;61835;50.196;6.454;2022-07-06T13:36:39;2.25;;;0.30;;
27231;SDS011;61835;50.196;6.454;2022-07-06T13:39:05;1.10;;;1.00;;
27231;SDS011;61835;50.196;6.454;2022-07-06T13:41:32;2.38;;;0.40;;
27231;SDS011;61835;50.196;6.454;2022-07-06T13:43:58;3.03;;;0.25;;
27231;SDS011;61835;50.196;6.454;2022-07-06T13:46:26;0.20;;;0.20;;
27231;SDS011;61835;50.196;6.454;2022-07-06T13:48:52;1.75;;;0.40;;
27231;SDS011;61835;50.196;6.454;2022-07-06T13:51:17;0.45;;;0.30;;
27231;SDS011;61835;50.196;6.454;2022-07-06T13:53:43;1.55;;;0.35;;
27231;SDS011;61835;50.196;6.454;2022-07-06T13:56:09;1.10;;;0.40;;
27231;SDS011;61835;50.196;6.454;2022-07-06T13:58:34;0.50;;;0.28;;
27231;SDS011;61835;50.196;6.454;2022-07-06T14:01:00;0.77;;;0.17;;
27231;SDS011;61835;50.196;6.454;2022-07-06T14:03:25;3.72;;;1.25;;
27231;SDS011;61835;50.196;6.454;2022-07-06T14:05:55;0.20;;;0.20;;
27231;SDS011;61835;50.196;6.454;2022-07-06T14:08:22;0.60;;;0.20;;
27231;SDS011;61835;50.196;6.454;2022-07-06T14:10:47;0.20;;;0.20;;
27231;SDS011;61835;50.196;6.454;2022-07-06T14:13:13;0.35;;;0.20;;
27231;SDS011;61835;50.196;6.454;2022-07-06T14:15:38;0.30;;;0.30;;
27231;SDS011;61835;50.196;6.454;2022-07-06T14:18:04;1.45;;;0.20;;
27231;SDS011;61835;50.196;6.454;2022-07-06T14:20:29;0.22;;;0.13;;
27231;SDS011;61835;50.196;6.454;2022-07-06T14:22:55;0.15;;;0.15;;
27231;SDS011;61835;50.196;6.454;2022-07-06T14:25:20;0.68;;;0.25;;
27231;SDS011;61835;50.196;6.454;2022-07-06T14:27:46;5.38;;;0.55;;
27231;SDS011;61835;50.196;6.454;2022-07-06T14:30:11;3.13;;;0.47;;
27231;SDS011;61835;50.196;6.454;2022-07-06T14:32:37;0.52;;;0.38;;
27231;SDS011;61835;50.196;6.454;2022-07-06T14:35:02;0.73;;;0.22;;
27231;SDS011;61835;50.196;6.454;2022-07-06T14:37:28;4.90;;;0.63;;
27231;SDS011;61835;50.196;6.454;2022-07-06T14:39:53;0.22;;;0.10;;
27231;SDS011;61835;50.196;6.454;2022-07-06T14:42:19;0.22;;;0.20;;
27231;SDS011;61835;50.196;6.454;2022-07-06T14:44:44;0.32;;;0.20;;
27231;SDS011;61835;50.196;6.454;2022-07-06T14:47:10;3.42;;;0.30;;
27231;SDS011;61835;50.196;6.454;2022-07-06T14:49:36;0.43;;;0.20;;
27231;SDS011;61835;50.196;6.454;2022-07-06T14:52:02;1.98;;;0.20;;
27231;SDS011;61835;50.196;6.454;2022-07-06T14:54:28;2.53;;;0.52;;
27231;SDS011;61835;50.196;6.454;2022-07-06T14:56:54;1.30;;;0.40;;